createdAt,value
2022-10-04T00:00:41.483Z,10.10
2022-10-04T00:02:23.715Z,10.10
2022-10-04T00:04:06.098Z,10.10
2022-10-04T00:05:42.441Z,10.00
2022-10-04T00:07:19.345Z,10.00
2022-10-04T00:08:55.453Z,10.00
2022-10-04T00:10:32.308Z,10.00
2022-10-04T00:12:06.780Z,9.90
2022-10-04T00:13:39.053Z,9.90
2022-10-04T00:15:21.448Z,9.90
2022-10-04T00:16:55.226Z,9.90
2022-10-04T00:18:31.695Z,9.90
2022-10-04T00:20:25.554Z,9.80
2022-10-04T00:22:12.903Z,9.80
2022-10-04T00:23:47.919Z,9.80
2022-10-04T00:25:21.138Z,9.90
2022-10-04T00:27:19.735Z,9.80
2022-10-04T00:28:55.433Z,9.80
2022-10-04T00:30:37.036Z,9.80
2022-10-04T00:32:30.494Z,9.80
2022-10-04T00:34:36.638Z,9.80
2022-10-04T00:36:42.113Z,9.80
2022-10-04T00:38:18.012Z,9.70
2022-10-04T00:40:01.874Z,9.70
2022-10-04T00:41:38.633Z,9.70
2022-10-04T00:43:17.312Z,9.70
2022-10-04T00:44:53.991Z,9.60
2022-10-04T00:46:30.190Z,9.60
2022-10-04T00:48:32.670Z,9.60
2022-10-04T00:50:16.554Z,9.60
2022-10-04T00:51:55.694Z,9.50
2022-10-04T00:53:46.638Z,9.50
2022-10-04T00:55:26.424Z,9.50
2022-10-04T00:57:03.300Z,9.50
2022-10-04T00:58:45.657Z,9.40
2022-10-04T01:00:21.344Z,9.40
2022-10-04T01:01:56.797Z,9.40
2022-10-04T01:03:34.166Z,9.40
2022-10-04T01:05:11.584Z,9.40
2022-10-04T01:06:44.304Z,9.40
2022-10-04T01:08:24.781Z,9.40
2022-10-04T01:10:03.329Z,9.40
2022-10-04T01:11:38.197Z,9.50
2022-10-04T01:13:14.804Z,9.50
2022-10-04T01:14:53.081Z,9.40
2022-10-04T01:16:27.564Z,9.50
2022-10-04T01:18:16.225Z,9.50
2022-10-04T01:19:54.201Z,9.50
2022-10-04T01:21:31.709Z,9.50
2022-10-04T01:23:05.330Z,9.50
2022-10-04T01:24:39.193Z,9.40
2022-10-04T01:26:41.100Z,9.40
2022-10-04T01:28:14.420Z,9.40
2022-10-04T01:29:47.301Z,9.30
2022-10-04T01:31:19.348Z,9.10
2022-10-04T01:32:52.370Z,9.00
2022-10-04T01:34:26.752Z,8.90
2022-10-04T01:35:59.781Z,8.90
2022-10-04T01:37:32.652Z,8.80
2022-10-04T01:39:07.667Z,8.80
2022-10-04T01:40:47.309Z,8.80
2022-10-04T01:42:24.513Z,8.80
2022-10-04T01:44:02.445Z,8.80
2022-10-04T01:45:39.683Z,8.90
2022-10-04T01:47:15.002Z,8.90
2022-10-04T01:48:48.649Z,8.90
2022-10-04T01:50:25.160Z,9.00
2022-10-04T01:52:04.271Z,9.00
2022-10-04T01:53:42.942Z,9.00
2022-10-04T01:55:21.403Z,9.00
2022-10-04T01:56:58.016Z,9.00
2022-10-04T01:58:36.296Z,8.90
2022-10-04T02:00:12.209Z,8.90
2022-10-04T02:01:48.282Z,8.90
2022-10-04T02:03:27.644Z,8.90
2022-10-04T02:05:02.100Z,9.00
2022-10-04T02:06:38.660Z,9.00
2022-10-04T02:08:16.181Z,9.00
2022-10-04T02:09:50.631Z,9.00
2022-10-04T02:11:30.965Z,9.00
2022-10-04T02:13:06.253Z,9.00
2022-10-04T02:14:43.182Z,9.00
2022-10-04T02:16:16.794Z,9.00
2022-10-04T02:17:51.600Z,8.90
2022-10-04T02:19:27.961Z,8.80
2022-10-04T02:21:01.126Z,8.80
2022-10-04T02:22:33.937Z,8.80
2022-10-04T02:24:09.346Z,8.80
2022-10-04T02:25:42.120Z,8.80
2022-10-04T02:27:15.934Z,8.90
2022-10-04T02:28:50.047Z,8.90
2022-10-04T02:30:23.239Z,8.80
2022-10-04T02:32:13.982Z,8.80
2022-10-04T02:33:49.557Z,8.80
2022-10-04T02:35:22.804Z,8.70
2022-10-04T02:36:55.743Z,8.80
2022-10-04T02:38:35.572Z,8.80
2022-10-04T02:40:13.893Z,8.80
2022-10-04T02:41:50.403Z,8.80
2022-10-04T02:43:29.470Z,8.90
2022-10-04T02:45:09.973Z,8.80
2022-10-04T02:46:50.071Z,8.90
2022-10-04T02:48:33.060Z,8.80
2022-10-04T02:50:10.901Z,8.90
2022-10-04T02:51:51.376Z,8.80
2022-10-04T02:53:30.039Z,8.70
2022-10-04T02:55:06.664Z,8.70
2022-10-04T02:56:40.057Z,8.70
2022-10-04T02:58:17.135Z,8.70
2022-10-04T02:59:52.173Z,8.60
2022-10-04T03:01:36.224Z,8.60
2022-10-04T03:03:17.740Z,8.60
2022-10-04T03:04:52.320Z,8.50
2022-10-04T03:06:32.242Z,8.50
2022-10-04T03:08:05.717Z,8.50
2022-10-04T03:09:40.447Z,8.50
2022-10-04T03:11:15.759Z,8.50
2022-10-04T03:12:51.905Z,8.50
2022-10-04T03:14:26.260Z,8.50
2022-10-04T03:16:00.614Z,8.60
2022-10-04T03:17:33.785Z,8.60
2022-10-04T03:19:07.089Z,8.60
2022-10-04T03:20:41.311Z,8.60
2022-10-04T03:22:13.133Z,8.60
2022-10-04T03:23:47.225Z,8.60
2022-10-04T03:25:23.424Z,8.60
2022-10-04T03:26:57.723Z,8.60
2022-10-04T03:28:29.971Z,8.50
2022-10-04T03:30:03.118Z,8.40
2022-10-04T03:31:41.532Z,8.30
2022-10-04T03:33:20.806Z,8.30
2022-10-04T03:34:57.329Z,8.30
2022-10-04T03:36:30.189Z,8.20
2022-10-04T03:38:05.121Z,8.20
2022-10-04T03:39:41.907Z,8.20
2022-10-04T03:41:16.492Z,8.30
2022-10-04T03:42:50.398Z,8.30
2022-10-04T03:44:24.460Z,8.30
2022-10-04T03:45:58.359Z,8.30
2022-10-04T03:47:36.389Z,8.30
2022-10-04T03:49:09.681Z,8.30
2022-10-04T03:50:47.820Z,8.30
2022-10-04T03:52:24.715Z,8.30
2022-10-04T03:53:59.379Z,8.30
2022-10-04T03:55:35.019Z,8.30
2022-10-04T03:57:08.270Z,8.30
2022-10-04T03:58:41.248Z,8.30
2022-10-04T04:00:17.956Z,8.30
2022-10-04T04:01:59.244Z,8.30
2022-10-04T04:03:42.651Z,8.30
2022-10-04T04:05:20.332Z,8.30
2022-10-04T04:07:02.361Z,8.30
2022-10-04T04:08:39.276Z,8.30
2022-10-04T04:10:21.700Z,8.40
2022-10-04T04:11:57.775Z,8.30
2022-10-04T04:13:43.335Z,8.40
2022-10-04T04:15:17.061Z,8.40
2022-10-04T04:16:49.968Z,8.40
2022-10-04T04:18:24.962Z,8.30
2022-10-04T04:20:06.117Z,8.40
2022-10-04T04:21:41.083Z,8.30
2022-10-04T04:23:28.518Z,8.30
2022-10-04T04:25:02.849Z,8.30
2022-10-04T04:26:39.917Z,8.30
2022-10-04T04:28:24.838Z,8.30
2022-10-04T04:30:01.583Z,8.30
2022-10-04T04:31:39.609Z,8.30
2022-10-04T04:33:21.099Z,8.30
2022-10-04T04:34:58.071Z,8.30
2022-10-04T04:36:34.172Z,8.30
2022-10-04T04:38:14.799Z,8.20
2022-10-04T04:39:54.603Z,8.20
2022-10-04T04:41:30.264Z,8.20
2022-10-04T04:43:03.849Z,8.10
2022-10-04T04:44:38.513Z,8.10
2022-10-04T04:46:28.321Z,8.10
2022-10-04T04:48:03.865Z,8.10
2022-10-04T04:49:40.930Z,8.10
2022-10-04T04:51:21.200Z,8.10
2022-10-04T04:52:58.892Z,8.10
2022-10-04T04:54:30.918Z,8.10
2022-10-04T04:56:10.197Z,8.10
2022-10-04T04:57:44.873Z,8.10
2022-10-04T04:59:18.016Z,8.20
2022-10-04T05:00:58.208Z,8.20
2022-10-04T05:02:36.189Z,8.20
2022-10-04T05:04:19.024Z,8.20
2022-10-04T05:05:51.785Z,8.20
2022-10-04T05:07:25.188Z,8.20
2022-10-04T05:08:58.395Z,8.20
2022-10-04T05:10:33.289Z,8.20
2022-10-04T05:12:09.782Z,8.20
2022-10-04T05:13:45.187Z,8.20
2022-10-04T05:15:19.608Z,8.20
2022-10-04T05:16:53.742Z,8.20
2022-10-04T05:18:31.409Z,8.10
2022-10-04T05:20:05.597Z,8.10
2022-10-04T05:21:40.860Z,8.10
2022-10-04T05:23:15.564Z,8.00
2022-10-04T05:24:53.055Z,8.00
2022-10-04T05:26:28.941Z,7.90
2022-10-04T05:28:02.151Z,7.90
2022-10-04T05:29:39.179Z,7.80
2022-10-04T05:31:31.085Z,7.80
2022-10-04T05:33:07.159Z,7.80
2022-10-04T05:34:41.695Z,7.80
2022-10-04T05:36:38.982Z,7.80
2022-10-04T05:38:21.383Z,7.80
2022-10-04T05:40:05.595Z,7.80
2022-10-04T05:41:46.151Z,7.80
2022-10-04T05:43:28.618Z,7.80
2022-10-04T05:45:02.195Z,7.90
2022-10-04T05:46:37.289Z,7.90
2022-10-04T05:48:14.932Z,7.90
2022-10-04T05:49:48.594Z,7.90
2022-10-04T05:51:22.723Z,7.80
2022-10-04T05:53:10.772Z,7.80
2022-10-04T05:54:43.698Z,7.70
2022-10-04T05:56:43.286Z,7.80
2022-10-04T05:58:30.283Z,7.70
2022-10-04T06:00:16.421Z,7.80
2022-10-04T06:01:57.865Z,7.80
2022-10-04T06:03:43.417Z,7.80
2022-10-04T06:05:28.239Z,7.80
2022-10-04T06:07:05.382Z,7.90
2022-10-04T06:08:51.093Z,7.90
2022-10-04T06:10:58.639Z,7.90
2022-10-04T06:12:47.957Z,7.90
2022-10-04T06:14:33.577Z,8.00
2022-10-04T06:16:21.021Z,8.00
2022-10-04T06:18:18.064Z,8.10
2022-10-04T06:20:07.361Z,8.10
2022-10-04T06:21:57.457Z,8.10
2022-10-04T06:23:33.609Z,8.00
2022-10-04T06:25:09.679Z,8.00
2022-10-04T06:26:45.889Z,8.00
2022-10-04T06:28:25.044Z,8.00
2022-10-04T06:30:02.534Z,8.10
2022-10-04T06:32:04.895Z,8.10
2022-10-04T06:33:57.070Z,8.10
2022-10-04T06:35:47.507Z,8.10
2022-10-04T06:37:47.471Z,8.10
2022-10-04T06:39:49.254Z,8.10
2022-10-04T06:41:46.705Z,8.10
2022-10-04T06:43:43.072Z,8.20
2022-10-04T06:45:31.213Z,8.20
2022-10-04T06:47:19.012Z,8.20
2022-10-04T06:49:27.560Z,8.30
2022-10-04T06:51:07.992Z,8.30
2022-10-04T06:52:58.487Z,8.30
2022-10-04T06:54:51.246Z,8.30
2022-10-04T06:56:56.053Z,8.40
2022-10-04T06:59:07.604Z,8.40
2022-10-04T07:00:49.061Z,8.40
2022-10-04T07:02:26.372Z,8.40
2022-10-04T07:04:10.225Z,8.50
2022-10-04T07:05:48.014Z,8.50
2022-10-04T07:07:35.395Z,8.50
2022-10-04T07:09:19.691Z,8.50
2022-10-04T07:10:55.373Z,8.50
2022-10-04T07:12:29.016Z,8.50
2022-10-04T07:14:09.169Z,8.60
2022-10-04T07:15:54.125Z,8.60
2022-10-04T07:17:31.411Z,8.60
2022-10-04T07:19:28.963Z,8.50
2022-10-04T07:21:07.761Z,8.50
2022-10-04T07:22:46.001Z,8.60
2022-10-04T07:24:26.767Z,8.60
2022-10-04T07:26:04.671Z,8.70
2022-10-04T07:27:48.415Z,8.60
2022-10-04T07:29:24.426Z,8.70
2022-10-04T07:31:03.509Z,8.70
2022-10-04T07:32:38.759Z,8.70
2022-10-04T07:34:16.347Z,8.80
2022-10-04T07:35:54.049Z,8.80
2022-10-04T07:37:29.694Z,8.90
2022-10-04T07:39:08.429Z,8.90
2022-10-04T07:40:59.811Z,8.90
2022-10-04T07:42:37.029Z,9.00
2022-10-04T07:44:20.626Z,9.10
2022-10-04T07:46:03.031Z,9.10
2022-10-04T07:47:37.307Z,9.20
2022-10-04T07:49:15.165Z,9.20
2022-10-04T07:50:58.769Z,9.20
2022-10-04T07:52:49.115Z,9.30
2022-10-04T07:54:26.699Z,9.30
2022-10-04T07:56:07.583Z,9.40
2022-10-04T07:57:49.160Z,9.40
2022-10-04T07:59:35.316Z,9.40
2022-10-04T08:01:19.024Z,9.50
2022-10-04T08:03:16.132Z,9.50
2022-10-04T08:05:01.405Z,9.60
2022-10-04T08:06:37.504Z,9.60
2022-10-04T08:08:24.430Z,9.60
2022-10-04T08:10:04.193Z,9.60
2022-10-04T08:11:49.553Z,9.70
2022-10-04T08:13:34.108Z,9.70
2022-10-04T08:15:37.740Z,9.70
2022-10-04T08:17:23.197Z,9.80
2022-10-04T08:19:14.772Z,9.80
2022-10-04T08:20:50.982Z,9.90
2022-10-04T08:22:34.030Z,9.90
2022-10-04T08:24:17.601Z,9.90
2022-10-04T08:26:02.653Z,10.00
2022-10-04T08:28:07.792Z,10.00
2022-10-04T08:30:01.010Z,10.10
2022-10-04T08:31:47.894Z,10.10
2022-10-04T08:33:31.238Z,10.20
2022-10-04T08:35:22.516Z,10.20
2022-10-04T08:37:04.036Z,10.20
2022-10-04T08:38:47.792Z,10.30
2022-10-04T08:41:05.973Z,10.30
2022-10-04T08:43:17.124Z,10.30
2022-10-04T08:45:25.721Z,10.30
2022-10-04T08:47:33.345Z,10.30
2022-10-04T08:49:30.664Z,10.40
2022-10-04T08:51:35.463Z,10.50
2022-10-04T08:53:30.445Z,10.60
2022-10-04T08:55:35.011Z,10.80
2022-10-04T08:57:27.026Z,10.90
2022-10-04T08:59:36.842Z,10.90
2022-10-04T09:01:40.193Z,11.10
2022-10-04T09:04:01.548Z,11.20
2022-10-04T09:05:54.757Z,11.40
2022-10-04T09:08:09.017Z,11.50
2022-10-04T09:10:08.670Z,11.60
2022-10-04T09:11:58.439Z,11.70
2022-10-04T09:13:46.898Z,11.80
2022-10-04T09:15:27.309Z,11.90
2022-10-04T09:17:22.011Z,11.90
2022-10-04T09:19:21.586Z,11.90
2022-10-04T09:21:01.083Z,12.00
2022-10-04T09:22:49.979Z,12.00
2022-10-04T09:25:04.514Z,12.10
2022-10-04T09:26:46.374Z,12.10
2022-10-04T09:28:45.840Z,12.20
2022-10-04T09:30:20.720Z,12.30
2022-10-04T09:32:30.342Z,12.30
2022-10-04T09:34:23.255Z,12.40
2022-10-04T09:36:21.824Z,12.50
2022-10-04T09:38:42.565Z,12.50
2022-10-04T09:40:42.415Z,12.60
2022-10-04T09:42:45.593Z,12.60
2022-10-04T09:44:52.482Z,12.60
2022-10-04T09:46:39.858Z,12.60
2022-10-04T09:48:26.960Z,12.60
2022-10-04T09:50:42.630Z,12.70
2022-10-04T09:52:28.245Z,12.70
2022-10-04T09:54:15.804Z,12.70
2022-10-04T09:56:10.683Z,12.70
2022-10-04T09:58:01.967Z,12.80
2022-10-04T10:00:14.366Z,12.80
2022-10-04T10:02:04.783Z,12.80
2022-10-04T10:04:00.865Z,12.90
2022-10-04T10:05:53.506Z,12.80
2022-10-04T10:07:40.614Z,12.90
2022-10-04T10:09:44.438Z,13.00
2022-10-04T10:11:51.955Z,13.10
2022-10-04T10:13:40.499Z,13.20
2022-10-04T10:15:28.219Z,13.30
2022-10-04T10:17:14.599Z,13.50
2022-10-04T10:19:00.478Z,13.50
2022-10-04T10:20:51.328Z,13.60
2022-10-04T10:22:48.178Z,13.70
2022-10-04T10:24:43.314Z,13.80
2022-10-04T10:26:50.874Z,13.90
2022-10-04T10:28:47.263Z,14.00
2022-10-04T10:30:25.624Z,14.10
2022-10-04T10:32:17.746Z,14.20
2022-10-04T10:34:21.036Z,14.30
2022-10-04T10:36:17.153Z,14.40
2022-10-04T10:38:09.043Z,14.50
2022-10-04T10:40:28.354Z,14.70
2022-10-04T10:42:20.762Z,14.90
2022-10-04T10:44:04.483Z,15.10
2022-10-04T10:45:48.880Z,15.20
2022-10-04T10:47:33.419Z,15.40
2022-10-04T10:49:35.762Z,15.50
2022-10-04T10:51:20.284Z,15.60
2022-10-04T10:53:29.160Z,15.70
2022-10-04T10:55:48.161Z,15.70
2022-10-04T10:57:41.849Z,15.80
2022-10-04T11:00:06.561Z,15.90
2022-10-04T11:02:10.135Z,16.00
2022-10-04T11:04:05.927Z,16.10
2022-10-04T11:06:08.550Z,16.20
2022-10-04T11:07:51.521Z,16.40
2022-10-04T11:09:38.621Z,16.40
2022-10-04T11:11:36.254Z,16.50
2022-10-04T11:13:26.451Z,16.60
2022-10-04T11:15:41.105Z,16.70
2022-10-04T11:17:42.255Z,16.80
2022-10-04T11:19:56.657Z,16.90
2022-10-04T11:22:07.159Z,16.90
2022-10-04T11:24:25.461Z,16.90
2022-10-04T11:26:25.156Z,17.00
2022-10-04T11:28:06.667Z,17.10
2022-10-04T11:29:57.425Z,17.20
2022-10-04T11:31:45.796Z,17.30
2022-10-04T11:33:44.514Z,17.30
2022-10-04T11:35:44.843Z,17.30
2022-10-04T11:37:21.945Z,17.30
2022-10-04T11:39:31.568Z,17.30
2022-10-04T11:41:16.580Z,17.30
2022-10-04T11:43:12.231Z,17.30
2022-10-04T11:45:01.358Z,17.40
2022-10-04T11:46:43.449Z,17.50
2022-10-04T11:48:27.847Z,17.50
2022-10-04T11:50:22.530Z,17.50
2022-10-04T11:52:30.963Z,17.50
2022-10-04T11:54:29.052Z,17.50
2022-10-04T11:56:29.638Z,17.60
2022-10-04T11:58:11.994Z,17.60
2022-10-04T11:59:53.401Z,17.60
2022-10-04T12:01:50.452Z,17.70
2022-10-04T12:03:46.145Z,17.70
2022-10-04T12:05:34.191Z,17.70
2022-10-04T12:07:27.509Z,17.70
2022-10-04T12:09:05.971Z,17.70
2022-10-04T12:10:40.715Z,17.80
2022-10-04T12:12:39.225Z,17.80
2022-10-04T12:14:26.780Z,17.80
2022-10-04T12:16:30.745Z,17.70
2022-10-04T12:18:48.299Z,17.70
2022-10-04T12:20:41.451Z,17.60
2022-10-04T12:22:54.832Z,17.70
2022-10-04T12:24:59.387Z,17.60
2022-10-04T12:26:59.613Z,17.60
2022-10-04T12:28:52.707Z,17.60
2022-10-04T12:30:33.289Z,17.60
2022-10-04T12:32:11.482Z,17.60
2022-10-04T12:33:50.613Z,17.60
2022-10-04T12:35:32.511Z,17.60
2022-10-04T12:37:18.716Z,17.70
2022-10-04T12:39:12.177Z,17.70
2022-10-04T12:40:52.834Z,17.60
2022-10-04T12:42:36.072Z,17.50
2022-10-04T12:44:24.773Z,17.60
2022-10-04T12:46:09.642Z,17.60
2022-10-04T12:47:57.244Z,17.60
2022-10-04T12:49:40.973Z,17.50
2022-10-04T12:51:35.061Z,17.50
2022-10-04T12:53:19.082Z,17.50
2022-10-04T12:54:57.928Z,17.40
2022-10-04T12:56:45.866Z,17.40
2022-10-04T12:58:24.716Z,17.40
2022-10-04T13:00:04.022Z,17.40
2022-10-04T13:01:45.752Z,17.40
2022-10-04T13:03:29.999Z,17.40
2022-10-04T13:05:11.306Z,17.30
2022-10-04T13:06:55.514Z,17.40
2022-10-04T13:08:38.714Z,17.30
2022-10-04T13:10:26.686Z,17.30
2022-10-04T13:12:12.264Z,17.40
2022-10-04T13:14:17.670Z,17.40
2022-10-04T13:17:59.564Z,17.30
2022-10-04T13:19:40.434Z,17.30
2022-10-04T13:21:21.597Z,17.20
2022-10-04T13:23:03.471Z,17.20
2022-10-04T13:25:05.431Z,17.20
2022-10-04T13:26:46.141Z,17.20
2022-10-04T13:28:26.884Z,17.10
2022-10-04T13:30:06.756Z,17.20
2022-10-04T13:31:47.254Z,17.10
2022-10-04T13:33:26.420Z,17.00
2022-10-04T13:35:07.188Z,17.00
2022-10-04T13:36:58.275Z,17.00
2022-10-04T13:38:48.947Z,17.00
2022-10-04T13:40:38.594Z,17.10
2022-10-04T13:42:24.220Z,17.00
2022-10-04T13:44:21.812Z,16.90
2022-10-04T13:46:07.465Z,16.90
2022-10-04T13:47:57.556Z,17.00
2022-10-04T13:49:42.851Z,17.00
2022-10-04T13:51:26.586Z,17.00
2022-10-04T13:53:30.777Z,17.00
2022-10-04T13:55:38.652Z,17.00
2022-10-04T13:57:21.046Z,17.00
2022-10-04T13:59:02.023Z,17.10
2022-10-04T14:00:56.929Z,17.10
2022-10-04T14:02:59.836Z,17.10
2022-10-04T14:04:54.429Z,17.10
2022-10-04T14:06:53.896Z,17.10
2022-10-04T14:09:06.293Z,17.10
2022-10-04T14:11:00.617Z,17.10
2022-10-04T14:13:11.594Z,17.10
2022-10-04T14:15:09.171Z,17.10
2022-10-04T14:17:00.981Z,17.10
2022-10-04T14:19:15.269Z,17.10
2022-10-04T14:21:22.126Z,17.10
2022-10-04T14:23:08.480Z,17.20
2022-10-04T14:25:17.545Z,17.20
2022-10-04T14:27:31.594Z,17.20
2022-10-04T14:29:34.501Z,17.20
2022-10-04T14:31:24.126Z,17.30
2022-10-04T14:33:23.017Z,17.20
2022-10-04T14:35:01.324Z,17.10
2022-10-04T14:37:04.566Z,17.10
2022-10-04T14:39:07.047Z,17.10
2022-10-04T14:41:07.761Z,17.10
2022-10-04T14:43:00.977Z,17.10
2022-10-04T14:44:55.177Z,17.20
2022-10-04T14:46:40.841Z,17.10
2022-10-04T14:48:46.004Z,17.10
2022-10-04T14:50:27.611Z,17.20
2022-10-04T14:52:14.291Z,17.20
2022-10-04T14:53:59.354Z,17.20
2022-10-04T14:56:03.997Z,17.20
2022-10-04T14:58:05.164Z,17.30
2022-10-04T15:00:08.656Z,17.20
2022-10-04T15:02:05.388Z,17.30
2022-10-04T15:03:45.940Z,17.30
2022-10-04T15:05:44.071Z,17.30
2022-10-04T15:07:21.533Z,17.30
2022-10-04T15:09:25.901Z,17.30
2022-10-04T15:11:01.131Z,17.30
2022-10-04T15:13:10.019Z,17.30
2022-10-04T15:14:42.027Z,17.30
2022-10-04T15:16:23.061Z,17.40
2022-10-04T15:18:02.051Z,17.40
2022-10-04T15:19:47.248Z,17.40
2022-10-04T15:21:40.698Z,17.40
2022-10-04T15:23:20.384Z,17.40
2022-10-04T15:24:53.553Z,17.30
2022-10-04T15:26:50.854Z,17.30
2022-10-04T15:28:46.780Z,17.40
2022-10-04T15:30:30.592Z,17.40
2022-10-04T15:32:20.043Z,17.40
2022-10-04T15:34:04.009Z,17.40
2022-10-04T15:35:41.837Z,17.30
2022-10-04T15:37:25.257Z,17.30
2022-10-04T15:39:04.989Z,17.40
2022-10-04T15:40:49.061Z,17.40
2022-10-04T15:42:26.285Z,17.40
2022-10-04T15:44:42.244Z,17.40
2022-10-04T15:46:43.770Z,17.40
2022-10-04T15:48:32.970Z,17.40
2022-10-04T15:50:23.837Z,17.40
2022-10-04T15:52:09.627Z,17.40
2022-10-04T15:53:56.421Z,17.40
2022-10-04T15:56:02.523Z,17.40
2022-10-04T15:57:50.413Z,17.30
2022-10-04T15:59:36.124Z,17.40
2022-10-04T16:01:36.552Z,17.40
2022-10-04T16:03:23.605Z,17.40
2022-10-04T16:05:14.697Z,17.40
2022-10-04T16:06:53.946Z,17.50
2022-10-04T16:09:05.625Z,17.50
2022-10-04T16:11:00.384Z,17.40
2022-10-04T16:12:43.924Z,17.40
2022-10-04T16:14:38.931Z,17.40
2022-10-04T16:16:56.642Z,17.40
2022-10-04T16:18:41.775Z,17.40
2022-10-04T16:20:55.188Z,17.30
2022-10-04T16:22:29.157Z,17.30
2022-10-04T16:24:39.745Z,17.30
2022-10-04T16:26:15.975Z,17.30
2022-10-04T16:28:05.862Z,17.30
2022-10-04T16:30:14.487Z,17.20
2022-10-04T16:31:53.381Z,17.20
2022-10-04T16:33:33.222Z,17.20
2022-10-04T16:35:16.299Z,17.10
2022-10-04T16:36:54.963Z,17.10
2022-10-04T16:38:29.428Z,17.10
2022-10-04T16:40:05.909Z,17.10
2022-10-04T16:41:44.135Z,17.00
2022-10-04T16:43:27.722Z,17.10
2022-10-04T16:45:21.715Z,17.00
2022-10-04T16:46:57.219Z,16.90
2022-10-04T16:48:38.533Z,16.80
2022-10-04T16:50:13.024Z,16.80
2022-10-04T16:52:17.081Z,16.70
2022-10-04T16:53:59.378Z,16.60
2022-10-04T16:55:51.652Z,16.60
2022-10-04T16:57:27.404Z,16.50
2022-10-04T16:59:02.168Z,16.50
2022-10-04T17:00:36.225Z,16.40
2022-10-04T17:02:26.497Z,16.40
2022-10-04T17:04:10.520Z,16.30
2022-10-04T17:05:55.948Z,16.30
2022-10-04T17:07:38.545Z,16.20
2022-10-04T17:09:20.100Z,16.10
2022-10-04T17:11:30.255Z,16.10
2022-10-04T17:13:19.860Z,16.10
2022-10-04T17:15:10.910Z,16.00
2022-10-04T17:16:56.018Z,16.00
2022-10-04T17:18:39.112Z,15.90
2022-10-04T17:20:24.502Z,15.90
2022-10-04T17:22:17.062Z,15.80
2022-10-04T17:24:11.596Z,15.70
2022-10-04T17:25:51.793Z,15.70
2022-10-04T17:27:28.609Z,15.60
2022-10-04T17:29:15.690Z,15.60
2022-10-04T17:30:55.210Z,15.50
2022-10-04T17:32:40.916Z,15.50
2022-10-04T17:34:27.274Z,15.50
2022-10-04T17:36:14.175Z,15.50
2022-10-04T17:37:51.822Z,15.40
2022-10-04T17:39:39.010Z,15.40
2022-10-04T17:41:21.395Z,15.40
2022-10-04T17:43:00.891Z,15.40
2022-10-04T17:44:48.286Z,15.40
2022-10-04T17:46:27.527Z,15.30
2022-10-04T17:48:24.122Z,15.30
2022-10-04T17:50:21.635Z,15.30
2022-10-04T17:52:14.469Z,15.30
2022-10-04T17:54:10.341Z,15.30
2022-10-04T17:55:49.365Z,15.30
2022-10-04T17:57:30.572Z,15.30
2022-10-04T17:59:12.005Z,15.30
2022-10-04T18:00:53.360Z,15.20
2022-10-04T18:02:42.278Z,15.20
2022-10-04T18:04:20.844Z,15.20
2022-10-04T18:05:57.829Z,15.20
2022-10-04T18:07:37.065Z,15.20
2022-10-04T18:09:20.752Z,15.20
2022-10-04T18:10:58.750Z,15.20
2022-10-04T18:12:37.312Z,15.20
2022-10-04T18:14:21.563Z,15.10
2022-10-04T18:15:59.790Z,15.20
2022-10-04T18:17:38.761Z,15.20
2022-10-04T18:19:32.718Z,15.00
2022-10-04T18:21:18.639Z,15.10
2022-10-04T18:22:57.038Z,15.10
2022-10-04T18:24:30.709Z,15.10
2022-10-04T18:26:11.938Z,15.10
2022-10-04T18:27:51.729Z,15.10
2022-10-04T18:29:39.158Z,15.10
2022-10-04T18:31:36.153Z,15.10
2022-10-04T18:33:15.958Z,15.10
2022-10-04T18:34:55.536Z,15.00
2022-10-04T18:36:31.860Z,15.00
2022-10-04T18:38:24.311Z,15.00
2022-10-04T18:40:11.592Z,15.00
2022-10-04T18:41:54.794Z,15.00
2022-10-04T18:43:30.755Z,15.00
2022-10-04T18:45:20.180Z,15.00
2022-10-04T18:46:57.465Z,15.00
2022-10-04T18:48:44.673Z,15.00
2022-10-04T18:50:25.259Z,15.00
2022-10-04T18:52:30.452Z,15.00
2022-10-04T18:54:15.251Z,14.90
2022-10-04T18:55:58.814Z,14.90
2022-10-04T18:57:59.031Z,14.80
2022-10-04T19:00:00.371Z,14.80
2022-10-04T19:02:01.179Z,14.80
2022-10-04T19:03:42.418Z,14.80
2022-10-04T19:05:21.731Z,14.80
2022-10-04T19:07:01.187Z,14.80
2022-10-04T19:08:44.963Z,14.70
2022-10-04T19:10:25.889Z,14.70
2022-10-04T19:12:05.401Z,14.70
2022-10-04T19:13:45.685Z,14.70
2022-10-04T19:15:30.320Z,14.80
2022-10-04T19:17:09.834Z,14.70
2022-10-04T19:18:57.949Z,14.70
2022-10-04T19:20:40.272Z,14.70
2022-10-04T19:22:31.706Z,14.60
2022-10-04T19:24:40.037Z,14.60
2022-10-04T19:26:31.815Z,14.50
2022-10-04T19:28:09.587Z,14.50
2022-10-04T19:29:55.733Z,14.50
2022-10-04T19:31:38.176Z,14.40
2022-10-04T19:33:17.635Z,14.40
2022-10-04T19:35:00.727Z,14.40
2022-10-04T19:36:47.081Z,14.40
2022-10-04T19:38:39.099Z,14.30
2022-10-04T19:40:21.184Z,14.30
2022-10-04T19:41:58.085Z,14.30
2022-10-04T19:43:42.254Z,14.20
2022-10-04T19:45:26.688Z,14.20
2022-10-04T19:47:04.463Z,14.20
2022-10-04T19:48:45.270Z,14.20
2022-10-04T19:50:23.709Z,14.10
2022-10-04T19:52:03.148Z,14.10
2022-10-04T19:53:40.542Z,14.10
2022-10-04T19:55:24.938Z,14.10
2022-10-04T19:57:01.434Z,14.10
2022-10-04T19:58:38.873Z,14.10
2022-10-04T20:00:15.266Z,14.10
2022-10-04T20:01:51.092Z,14.10
2022-10-04T20:03:23.871Z,14.10
2022-10-04T20:04:56.443Z,14.10
2022-10-04T20:06:29.236Z,14.10
2022-10-04T20:08:05.424Z,14.10
2022-10-04T20:09:54.251Z,14.10
2022-10-04T20:11:29.486Z,14.10
2022-10-04T20:13:23.998Z,14.10
2022-10-04T20:15:27.329Z,14.20
2022-10-04T20:17:05.910Z,14.10
2022-10-04T20:19:15.585Z,14.10
2022-10-04T20:21:06.485Z,14.20
2022-10-04T20:22:57.979Z,14.10
2022-10-04T20:24:51.384Z,14.10
2022-10-04T20:27:00.150Z,14.10
2022-10-04T20:28:43.945Z,14.10
2022-10-04T20:30:17.052Z,14.00
2022-10-04T20:31:53.614Z,14.00
2022-10-04T20:33:46.985Z,14.00
2022-10-04T20:35:58.894Z,14.00
2022-10-04T20:38:31.650Z,14.00
2022-10-04T20:40:06.980Z,14.00
2022-10-04T20:42:20.173Z,13.90
2022-10-04T20:43:54.898Z,13.90
2022-10-04T20:45:28.196Z,13.80
2022-10-04T20:47:00.098Z,13.90
2022-10-04T20:48:33.037Z,13.90
2022-10-04T20:50:15.274Z,13.80
2022-10-04T20:51:48.956Z,13.80
2022-10-04T20:53:24.304Z,13.80
2022-10-04T20:54:57.133Z,13.80
2022-10-04T20:56:31.626Z,13.70
2022-10-04T20:58:21.809Z,13.70
2022-10-04T20:59:55.438Z,13.70
2022-10-04T21:01:43.652Z,13.70
2022-10-04T21:03:18.741Z,13.60
2022-10-04T21:04:53.285Z,13.50
2022-10-04T21:06:27.362Z,13.50
2022-10-04T21:08:30.585Z,13.50
2022-10-04T21:10:16.019Z,13.50
2022-10-04T21:11:51.364Z,13.50
2022-10-04T21:13:57.545Z,13.40
2022-10-04T21:15:30.267Z,13.40
2022-10-04T21:17:04.059Z,13.40
2022-10-04T21:18:36.038Z,13.40
2022-10-04T21:20:15.876Z,13.40
2022-10-04T21:21:49.806Z,13.30
2022-10-04T21:23:30.202Z,13.30
2022-10-04T21:25:05.003Z,13.30
2022-10-04T21:26:37.732Z,13.30
2022-10-04T21:28:40.610Z,13.30
2022-10-04T21:30:16.071Z,13.30
2022-10-04T21:31:49.000Z,13.30
2022-10-04T21:33:20.843Z,13.30
2022-10-04T21:34:54.722Z,13.30
2022-10-04T21:36:27.679Z,13.30
2022-10-04T21:38:00.792Z,13.30
2022-10-04T21:39:33.522Z,13.30
2022-10-04T21:41:06.501Z,13.20
2022-10-04T21:42:39.229Z,13.20
2022-10-04T21:44:12.135Z,13.20
2022-10-04T21:45:44.891Z,13.20
2022-10-04T21:47:17.752Z,13.10
2022-10-04T21:48:50.460Z,13.10
2022-10-04T21:50:23.176Z,13.10
2022-10-04T21:51:55.896Z,13.10
2022-10-04T21:53:29.946Z,13.10
2022-10-04T21:55:02.817Z,13.10
2022-10-04T21:56:35.664Z,13.10
2022-10-04T21:58:07.666Z,13.10
2022-10-04T21:59:40.567Z,13.10
2022-10-04T22:01:13.427Z,13.10
2022-10-04T22:02:46.276Z,13.10
2022-10-04T22:04:19.736Z,13.10
2022-10-04T22:05:52.468Z,13.10
2022-10-04T22:07:24.305Z,13.20
2022-10-04T22:08:58.395Z,13.10
2022-10-04T22:10:31.195Z,13.10
2022-10-04T22:12:02.967Z,13.10
2022-10-04T22:13:35.724Z,13.10
2022-10-04T22:15:08.170Z,13.10
2022-10-04T22:16:40.923Z,13.10
2022-10-04T22:18:17.005Z,13.10
2022-10-04T22:19:52.805Z,13.10
2022-10-04T22:21:24.568Z,13.10
2022-10-04T22:22:57.791Z,13.10
2022-10-04T22:24:30.924Z,13.10
2022-10-04T22:26:03.781Z,13.00
2022-10-04T22:27:35.532Z,13.00
2022-10-04T22:29:13.546Z,13.00
2022-10-04T22:30:46.272Z,13.00
2022-10-04T22:32:22.604Z,12.90
2022-10-04T22:33:56.396Z,12.90
2022-10-04T22:35:31.702Z,12.90
2022-10-04T22:37:04.548Z,12.90
2022-10-04T22:38:37.355Z,12.90
2022-10-04T22:40:17.477Z,12.80
2022-10-04T22:41:56.297Z,12.80
2022-10-04T22:43:28.045Z,12.70
2022-10-04T22:45:02.669Z,12.70
2022-10-04T22:46:39.955Z,12.60
2022-10-04T22:48:16.112Z,12.60
2022-10-04T22:49:52.706Z,12.60